Data for 11/11/2005

Time Sea-Level Adjusted Pressure Absolute Pressure Temperature Relative Humidity Dew Point   
(mb) (inHg) (mb) (inHg) (C) (F) (%) (C) (F)
00:05 1013 29.91 842 24.86 9.1 48.5 49 -1.1 30
00:10 1013 29.91 842 24.86 9.1 48.4 50 -0.7 30.7
00:15 1013 29.91 842 24.86 8.9 48.1 50 -1 30.3
00:20 1013 29.91 842 24.86 9 48.1 48 -1.4 29.4
00:25 1013 29.91 842 24.86 10.5 50.8 43 -1.5 29.3
00:30 1013 29.91 842 24.86 11 51.7 43 -0.9 30.3
00:35 1013 29.91 842 24.86 10.4 50.7 48 -0.2 31.6
00:40 1013 29.91 842 24.86 9.8 49.6 48 -0.6 30.9
00:45 1013 29.91 842 24.86 10.4 50.6 44 -1.2 29.8
00:50 1013 29.91 842 24.86 9.8 49.7 49 -0.3 31.4
00:55 1013 29.91 842 24.86 9.7 49.5 46 -1.4 29.4
01:00 1012 29.88 842 24.86 10.5 50.8 45 -0.9 30.4
01:05 1012 29.88 842 24.86 10 50.1 50 0.2 32.4
01:10 1012 29.88 842 24.86 8.7 47.7 53 -0.2 31.7
01:15 1012 29.88 842 24.86 8.3 47 55 -0.2 31.6
01:20 1012 29.88 842 24.86 8.1 46.6 54 -0.6 31
01:25 1012 29.88 842 24.86 8.2 46.7 55 -0.3 31.4
01:30 1012 29.88 842 24.86 7.6 45.8 59 0.3 32.5
01:35 1012 29.88 842 24.86 6.8 44.3 58 -0.8 30.6
01:40 1012 29.88 842 24.86 7.6 45.6 55 -0.8 30.5
01:45 1012 29.88 842 24.86 8.2 46.8 52 -1 30.2
01:50 1012 29.88 842 24.86 8.6 47.4 52 -0.6 30.9
01:55 1012 29.88 842 24.86 7.8 46.1 55 -0.6 30.8
02:00 1012 29.88 842 24.86 7.6 45.6 57 -0.3 31.5
02:05 1012 29.88 842 24.86 7.3 45.2 58 -0.5 31.2
02:10 1012 29.88 842 24.86 7.1 44.8 62 0.4 32.7
02:15 1012 29.88 842 24.86 7.5 45.6 57 -0.3 31.4
02:20 1012 29.88 842 24.86 7.2 44.9 60 0 32
02:25 1012 29.88 842 24.86 7 44.7 57 -0.9 30.4
02:30 1012 29.88 842 24.86 7.7 45.8 55 -0.7 30.7
02:35 1012 29.88 842 24.86 7.4 45.2 58 -0.4 31.4
02:40 1012 29.88 842 24.86 6.7 44.1 58 -0.9 30.4
02:45 1012 29.88 842 24.86 7 44.6 59 -0.4 31.2
02:50 1012 29.88 842 24.86 6.3 43.3 62 -0.4 31.2
02:55 1012 29.88 841 24.83 7 44.5 54 -1.8 28.7
03:00 1012 29.88 841 24.83 7.8 46 55 -0.6 30.8
03:05 1012 29.88 841 24.83 7.1 44.8 57 -0.8 30.5
03:10 1012 29.88 841 24.83 7.1 44.7 57 -0.9 30.4
03:15 1012 29.88 841 24.83 6 42.9 65 -0.1 31.9
03:20 1012 29.88 841 24.83 4.9 40.8 67 -0.6 30.9
03:25 1012 29.88 841 24.83 4.3 39.8 67 -1.2 29.8
03:30 1012 29.88 841 24.83 5 41 66 -0.8 30.6
03:35 1012 29.88 841 24.83 5.9 42.6 60 -1.2 29.9
03:40 1012 29.88 841 24.83 6.5 43.7 58 -1.2 29.9
03:45 1012 29.88 841 24.83 6.6 43.9 58 -1 30.2
03:50 1012 29.88 841 24.83 7.1 44.8 56 -1 30.3
03:55 1012 29.88 841 24.83 7.1 44.8 57 -0.9 30.4
04:00 1012 29.88 841 24.83 7.3 45.1 56 -1 30.1
04:05 1012 29.88 841 24.83 7.2 45 57 -0.6 30.9
04:10 1012 29.88 841 24.83 6.6 43.9 59 -0.9 30.4
04:15 1012 29.88 841 24.83 6.7 44 58 -1 30.2
04:20 1012 29.88 841 24.83 6.2 43.1 62 -0.6 30.9
04:25 1012 29.88 841 24.83 6 42.8 60 -1 30.1
04:30 1012 29.88 841 24.83 6 42.9 60 -1.1 30.1
04:35 1012 29.88 841 24.83 6.3 43.4 59 -1.1 29.9
04:40 1012 29.88 841 24.83 6.5 43.7 58 -1 30.1
04:45 1012 29.88 841 24.83 6.5 43.7 58 -1.1 30.1
04:50 1012 29.88 841 24.83 7 44.6 56 -1.1 30.1
04:55 1012 29.88 841 24.83 6.6 43.8 58 -1 30.3
05:00 1012 29.88 841 24.83 6.5 43.8 58 -1.1 30
05:05 1012 29.88 841 24.83 6.9 44.4 56 -1.3 29.7
05:10 1012 29.88 841 24.83 7 44.5 58 -0.7 30.8
05:15 1012 29.88 841 24.83 5.2 41.4 64 -1 30.2
05:20 1012 29.88 841 24.83 4.6 40.4 65 -1.3 29.7
05:25 1012 29.88 841 24.83 5.1 41.2 63 -1.3 29.7
05:30 1012 29.88 841 24.83 5.3 41.5 62 -1.4 29.4
05:35 1012 29.88 841 24.83 4.9 40.8 64 -1.4 29.5
05:40 1012 29.88 841 24.83 5.6 42.2 60 -1.5 29.4
05:45 1012 29.88 841 24.83 6.2 43.2 61 -0.7 30.8
05:50 1012 29.88 841 24.83 6 42.8 60 -1 30.1
05:55 1012 29.88 841 24.83 5.4 41.7 63 -1.1 30.1
06:00 1012 29.88 841 24.83 5.6 42 63 -0.9 30.4
06:05 1012 29.88 841 24.83 5.8 42.4 62 -0.9 30.3
06:10 1012 29.88 841 24.83 5.9 42.6 63 -0.7 30.8
06:15 1012 29.88 841 24.83 5.1 41.1 66 -0.8 30.5
06:20 1012 29.88 841 24.83 5.1 41.2 65 -0.9 30.4
06:25 1012 29.88 841 24.83 4.7 40.5 67 -0.9 30.4
06:30 1012 29.88 841 24.83 4.3 39.8 69 -0.9 30.3
06:35 1012 29.88 841 24.83 4.5 40 68 -1 30.2
06:40 1012 29.88 841 24.83 4.4 39.8 68 -1.1 30.1
06:45 1012 29.88 841 24.83 4.3 39.7 69 -1 30.2
06:50 1012 29.88 841 24.83 4.2 39.5 69 -1 30.3
06:55 1012 29.88 841 24.83 3.9 39.1 70 -1 30.2
07:00 1012 29.88 841 24.83 3.4 38.1 73 -1 30.2
07:05 1012 29.88 841 24.83 2.8 37.1 74 -1.3 29.7
07:10 1012 29.88 841 24.83 2.5 36.5 76 -1.4 29.5
07:15 1012 29.88 841 24.83 2.4 36.3 75 -1.5 29.2
07:20 1012 29.88 841 24.83 2.8 37.1 72 -1.7 29
07:25 1012 29.88 841 24.83 3.6 38.5 70 -1.4 29.5
07:30 1012 29.88 841 24.83 4 39.1 68 -1.5 29.3
07:35 1012 29.88 841 24.83 4.3 39.7 67 -1.3 29.7
07:40 1012 29.88 841 24.83 3.9 39.1 69 -1.2 29.9
07:45 1012 29.88 841 24.83 3.8 38.8 69 -1.4 29.5
07:50 1012 29.88 841 24.83 4.4 39.9 66 -1.4 29.6
07:55 1012 29.88 841 24.83 4.5 40.2 67 -1.1 29.9
08:00 1012 29.88 841 24.83 4.7 40.5 66 -1.2 29.9
08:05 1012 29.88 841 24.83 4.3 39.8 67 -1.3 29.7
08:10 1012 29.88 841 24.83 3.3 38 71 -1.4 29.4
08:15 1012 29.88 841 24.83 3.3 38 70 -1.6 29.1
08:20 1012 29.88 841 24.83 3.9 39 68 -1.4 29.4
08:25 1012 29.88 841 24.83 4.1 39.3 68 -1.3 29.7
08:30 1012 29.88 841 24.83 4.4 39.9 67 -1.3 29.7
08:35 1012 29.88 841 24.83 4.8 40.6 66 -1.1 30.1
08:40 1012 29.88 841 24.83 4.8 40.6 66 -1 30.2
08:45 1012 29.88 841 24.83 5.1 41.2 64 -1.1 30
08:50 1012 29.88 841 24.83 5.7 42.3 62 -0.9 30.4
08:55 1012 29.88 841 24.83 6.6 44 59 -0.7 30.7
09:00 1012 29.88 841 24.83 7 44.5 60 -0.3 31.4
09:05 1012 29.88 841 24.83 7.1 44.7 59 -0.4 31.4
09:10 1012 29.88 841 24.83 7.2 44.9 59 -0.2 31.6
09:15 1012 29.88 841 24.83 7.3 45.1 59 -0.2 31.6
09:20 1012 29.88 841 24.83 7.7 45.9 57 -0.2 31.7
09:25 1012 29.88 841 24.83 8.1 46.6 56 -0 31.9
09:30 1012 29.88 841 24.83 9 48.1 54 0.3 32.6
09:35 1012 29.88 841 24.83 9.2 48.6 54 0.4 32.7
09:40 1012 29.88 841 24.83 8.6 47.6 56 0.3 32.5
09:45 1012 29.88 841 24.83 9.3 48.8 52 0.1 32.2
09:50 1012 29.88 841 24.83 10.1 50.3 51 0.4 32.7
09:55 1012 29.88 841 24.83 10.3 50.5 50 0.3 32.6
10:00 1012 29.88 841 24.83 11.3 52.4 47 0.4 32.8
10:05 1011 29.85 841 24.83 11.6 52.8 46 0.5 32.8
10:10 1011 29.85 841 24.83 12 53.6 46 0.8 33.4
10:15 1011 29.85 841 24.83 12.4 54.2 45 0.8 33.4
10:20 1011 29.85 841 24.83 13.1 55.6 43 0.9 33.7
10:25 1011 29.85 841 24.83 13.1 55.6 43 0.9 33.7
10:30 1011 29.85 841 24.83 13.6 56.4 42 0.9 33.6
10:35 1011 29.85 840 24.81 13.8 56.8 42 1 33.8
10:40 1011 29.85 840 24.81 13.7 56.7 43 1.4 34.5
10:45 1011 29.85 840 24.81 13.5 56.3 43 1.2 34.2
10:50 1011 29.85 840 24.81 13.6 56.6 42 1.2 34.2
10:55 1011 29.85 840 24.81 13.7 56.6 43 1.4 34.5
11:00 1011 29.85 840 24.81 13 55.3 44 1.2 34.2
11:05 1011 29.85 840 24.81 11.8 53.2 50 1.7 35.1
11:10 1011 29.85 840 24.81 10.9 51.6 52 1.5 34.7
11:15 1011 29.85 840 24.81 10.9 51.6 50 1 33.8
11:20 1011 29.85 840 24.81 11.1 51.9 49 0.9 33.7
11:25 1011 29.85 840 24.81 10.7 51.3 51 0.9 33.6
11:30 1011 29.85 840 24.81 10.9 51.7 49 0.7 33.3
11:35 1011 29.85 840 24.81 11.3 52.4 48 0.8 33.4
11:40 1011 29.85 840 24.81 10.7 51.2 51 1 33.7
11:45 1011 29.85 840 24.81 10.4 50.7 50 0.5 32.9
11:50 1011 29.85 840 24.81 10.8 51.5 48 0.3 32.5
11:55 1011 29.85 840 24.81 11 51.8 48 0.5 32.9
12:00 1011 29.85 840 24.81 11 51.7 50 0.9 33.6
12:05 1011 29.85 840 24.81 11.1 51.9 47 0.1 32.2
12:10 1010 29.83 840 24.81 11.6 52.8 47 0.6 33.1
12:15 1010 29.83 840 24.81 11.8 53.3 45 0.3 32.6
12:20 1010 29.83 839 24.78 11.7 53 46 0.4 32.6
12:25 1010 29.83 839 24.78 11.5 52.6 48 0.8 33.4
12:30 1010 29.83 839 24.78 11.8 53.3 46 0.6 33.1
12:35 1010 29.83 839 24.78 12.6 54.6 43 0.3 32.5
12:40 1010 29.83 839 24.78 12.6 54.8 44 0.7 33.2
12:45 1010 29.83 839 24.78 11.8 53.2 47 1 33.9
12:50 1010 29.83 839 24.78 11.5 52.7 47 0.7 33.3
12:55 1010 29.83 839 24.78 11.7 53.1 47 0.9 33.6
13:00 1010 29.83 839 24.78 12 53.5 46 0.8 33.5
13:05 1010 29.83 839 24.78 12.5 54.5 45 0.9 33.7
13:10 1010 29.83 839 24.78 12.7 54.9 45 1.2 34.2
13:15 1010 29.83 839 24.78 12.6 54.8 48 2.1 35.7
13:20 1010 29.83 839 24.78 12.4 54.3 45 0.9 33.7
13:25 1010 29.83 839 24.78 12.5 54.5 44 0.7 33.2
13:30 1010 29.83 839 24.78 12.8 55 44 0.7 33.3
13:35 1010 29.83 839 24.78 12.7 54.8 45 1 33.7
13:40 1010 29.83 839 24.78 12.2 54 44 0.4 32.7
13:45 1010 29.83 839 24.78 12.5 54.5 43 0.4 32.7
13:50 1010 29.83 839 24.78 13 55.4 42 0.4 32.7
13:55 1009 29.8 839 24.78 12.8 55.1 42 0.1 32.2
14:00 1009 29.8 839 24.78 12.7 54.8 43 0.4 32.6
14:05 1009 29.8 839 24.78 12.4 54.3 45 0.8 33.5
14:10 1009 29.8 839 24.78 12.3 54.1 46 1.1 34
14:15 1009 29.8 839 24.78 12.3 54.2 44 0.5 32.9
14:20 1009 29.8 839 24.78 12.5 54.5 45 0.9 33.5
14:25 1009 29.8 839 24.78 12.3 54.1 45 0.8 33.5
14:30 1009 29.8 839 24.78 12.3 54.1 45 0.9 33.6
14:35 1009 29.8 839 24.78 12.4 54.4 46 1.1 33.9
14:40 1009 29.8 839 24.78 12.5 54.4 45 0.8 33.4
14:45 1009 29.8 839 24.78 12.4 54.3 45 0.9 33.7
14:50 1009 29.8 838 24.75 12.3 54.1 46 1.1 34
14:55 1009 29.8 838 24.75 12.3 54.1 46 1.1 33.9
15:00 1009 29.8 839 24.78 11.8 53.3 49 1.6 34.8
15:05 1009 29.8 839 24.78 11.1 51.9 47 0.1 32.2
15:10 1009 29.8 839 24.78 10.9 51.6 46 -0.1 31.9
15:15 1009 29.8 839 24.78 10.9 51.5 49 0.5 32.9
15:20 1009 29.8 839 24.78 11.2 52.1 46 0.1 32.1
15:25 1009 29.8 839 24.78 11.4 52.5 47 0.4 32.7
15:30 1009 29.8 839 24.78 11.4 52.5 47 0.6 33.1
15:35 1009 29.8 839 24.78 11.3 52.3 48 0.6 33.1
15:40 1009 29.8 839 24.78 11.1 51.9 48 0.5 32.8
15:45 1009 29.8 839 24.78 11.1 51.9 47 0.4 32.6
15:50 1010 29.83 839 24.78 11.1 52 48 0.6 33.2
15:55 1010 29.83 839 24.78 10.7 51.3 50 0.8 33.5
16:00 1010 29.83 839 24.78 10.4 50.7 52 1 33.7
16:05 1010 29.83 839 24.78 10.2 50.3 52 0.8 33.5
16:10 1010 29.83 839 24.78 10.1 50.1 55 1.5 34.7
16:15 1010 29.83 839 24.78 9.9 49.8 57 1.7 35.1
16:20 1010 29.83 839 24.78 9.7 49.5 59 2 35.7
16:25 1010 29.83 839 24.78 9.5 49.1 59 2 35.6
16:30 1010 29.83 839 24.78 9.3 48.8 60 2.1 35.7
16:35 1010 29.83 839 24.78 9.1 48.4 62 2.3 36.1
16:40 1010 29.83 839 24.78 8.7 47.6 62 1.8 35.2
16:45 1010 29.83 839 24.78 8.6 47.6 62 1.8 35.3
16:50 1010 29.83 839 24.78 8.6 47.5 62 1.9 35.3
16:55 1010 29.83 839 24.78 8.5 47.2 62 1.6 35
17:00 1010 29.83 839 24.78 8.3 46.9 63 1.7 35.1
17:05 1010 29.83 839 24.78 8.1 46.5 64 1.6 34.9
17:10 1010 29.83 839 24.78 8 46.3 63 1.4 34.5
17:15 1010 29.83 839 24.78 8.2 46.7 63 1.5 34.7
17:20 1010 29.83 839 24.78 8 46.4 63 1.4 34.5
17:25 1010 29.83 839 24.78 7.9 46.1 63 1.3 34.4
17:30 1010 29.83 839 24.78 8.1 46.6 62 1.3 34.3
17:35 1010 29.83 839 24.78 7.9 46.2 64 1.5 34.6
17:40 1010 29.83 839 24.78 7.5 45.6 64 1.3 34.3
17:45 1010 29.83 839 24.78 7.6 45.7 63 1.1 34
17:50 1010 29.83 839 24.78 7.7 45.9 63 1 33.9
17:55 1010 29.83 839 24.78 7.5 45.5 63 1 33.8
18:00 1010 29.83 839 24.78 7.2 44.9 66 1.3 34.3
18:05 1010 29.83 839 24.78 7 44.5 66 1.1 34
18:10 1010 29.83 839 24.78 7.3 45.2 64 0.9 33.6
18:15 1010 29.83 839 24.78 7.5 45.6 63 1.1 33.9
18:20 1010 29.83 839 24.78 7.6 45.7 63 1.1 34
18:25 1010 29.83 839 24.78 7.7 45.9 63 1.2 34.1
18:30 1010 29.83 839 24.78 7.6 45.6 64 1.3 34.3
18:35 1010 29.83 840 24.81 7.7 45.8 64 1.3 34.3
18:40 1011 29.85 840 24.81 7.7 45.9 64 1.4 34.5
18:45 1011 29.85 840 24.81 7.6 45.7 65 1.4 34.5
18:50 1011 29.85 840 24.81 7.4 45.4 66 1.5 34.8
18:55 1011 29.85 840 24.81 6.8 44.2 69 1.5 34.7
19:00 1011 29.85 840 24.81 5.6 42.1 74 1.3 34.4
19:05 1011 29.85 840 24.81 5.5 42 73 1.1 34
19:10 1011 29.85 840 24.81 5.7 42.3 74 1.4 34.5
19:15 1011 29.85 840 24.81 6 42.8 72 1.3 34.4
19:20 1011 29.85 840 24.81 6.1 42.9 71 1.3 34.3
19:25 1011 29.85 840 24.81 6.2 43.1 71 1.3 34.3
19:30 1011 29.85 840 24.81 6.1 43 71 1.2 34.2
19:35 1011 29.85 840 24.81 6.4 43.5 69 1.1 34.1
19:40 1011 29.85 840 24.81 6.6 43.8 68 1.1 34
19:45 1011 29.85 840 24.81 6.8 44.2 67 1 33.8
19:50 1011 29.85 840 24.81 6.9 44.4 67 1.2 34.1
19:55 1011 29.85 840 24.81 6.7 44.1 69 1.6 34.8
20:00 1011 29.85 840 24.81 6.4 43.5 69 1.1 33.9
20:05 1011 29.85 840 24.81 6.6 44 67 1 33.7
20:10 1011 29.85 840 24.81 6.5 43.7 68 1 33.8
20:15 1011 29.85 840 24.81 6.5 43.6 67 0.9 33.6
20:20 1011 29.85 840 24.81 6.6 43.9 66 0.7 33.3
20:25 1011 29.85 840 24.81 6.8 44.2 67 1.2 34.1
20:30 1011 29.85 840 24.81 6.5 43.8 68 1 33.8
20:35 1011 29.85 840 24.81 6.8 44.2 66 1 33.7
20:40 1011 29.85 840 24.81 6.8 44.3 66 0.8 33.5
20:45 1011 29.85 840 24.81 6.8 44.3 65 0.7 33.3
20:50 1011 29.85 840 24.81 7.1 44.7 65 0.9 33.6
20:55 1011 29.85 840 24.81 7.3 45.2 63 0.8 33.5
21:00 1011 29.85 840 24.81 7.1 44.8 65 1.1 34
21:05 1011 29.85 840 24.81 6.5 43.8 67 0.9 33.6
21:10 1011 29.85 840 24.81 6.7 44 65 0.6 33.2
21:15 1011 29.85 840 24.81 6.8 44.3 67 1.2 34.1
21:20 1011 29.85 840 24.81 7.2 44.9 62 0.4 32.6
21:25 1011 29.85 840 24.81 7.4 45.3 65 1.4 34.5
21:30 1011 29.85 840 24.81 7.1 44.9 66 1.3 34.3
21:35 1011 29.85 840 24.81 7 44.6 67 1.3 34.3
21:40 1011 29.85 840 24.81 6.9 44.4 67 1.2 34.2
21:45 1011 29.85 840 24.81 6.7 44 68 1.2 34.2
21:50 1011 29.85 840 24.81 6.6 43.9 69 1.3 34.4
21:55 1011 29.85 840 24.81 6.5 43.7 69 1.3 34.4
22:00 1011 29.85 841 24.83 6.3 43.3 72 1.5 34.7
22:05 1011 29.85 841 24.83 6 42.8 72 1.3 34.3
22:10 1011 29.85 841 24.83 5.8 42.4 73 1.3 34.3
22:15 1011 29.85 841 24.83 5.5 41.8 74 1.2 34.2
22:20 1011 29.85 841 24.83 5.4 41.7 74 1.1 34
22:25 1011 29.85 840 24.81 5.1 41.2 75 1.1 33.9
22:30 1011 29.85 840 24.81 5 40.9 75 1 33.7
22:35 1011 29.85 840 24.81 4.9 40.9 75 0.9 33.6
22:40 1011 29.85 841 24.83 4.9 40.9 76 1 33.8
22:45 1011 29.85 841 24.83 4.7 40.4 77 0.9 33.6
22:50 1011 29.85 841 24.83 4.8 40.7 75 0.9 33.6
22:55 1011 29.85 841 24.83 5.1 41.2 75 1 33.8
23:00 1011 29.85 841 24.83 5.3 41.6 74 1.1 34
23:05 1011 29.85 840 24.81 5.4 41.7 74 1.2 34.2
23:10 1011 29.85 840 24.81 5.3 41.6 74 1.1 33.9
23:15 1011 29.85 840 24.81 5.4 41.7 74 1 33.9
23:20 1011 29.85 840 24.81 5.3 41.6 73 1 33.8
23:25 1011 29.85 840 24.81 5.3 41.6 74 1 33.8
23:30 1011 29.85 840 24.81 5.3 41.5 75 1.2 34.2
23:35 1011 29.85 840 24.81 4.8 40.6 78 1.3 34.3
23:40 1011 29.85 840 24.81 4.2 39.5 78 0.8 33.4
23:45 1011 29.85 840 24.81 4.3 39.8 77 0.7 33.3
23:50 1011 29.85 840 24.81 4.5 40 78 0.9 33.6
23:55 1011 29.85 840 24.81 4.4 40 76 0.7 33.2
24:00 1011 29.85 840 24.81 4.8 40.6 74 0.6 33.1